Time;durP1;ratioP1;P1;durP2;ratioP2;P2;SDS_P1;SDS_P2;PMS_P1;PMS_P2;Temp;Humidity;BMP_temperature;BMP_pressure;BME280_temperature;BME280_humidity;BME280_pressure;Samples;Min_cycle;Max_cycle;Signal;HPM_P1;HPM_P2
2023/12/06 00:00:20;;;;;;;2.58;1.10;;;4.10;91.20;;;;;;5009030;28;20046;-64
2023/12/06 00:02:46;;;;;;;1.08;1.00;;;4.10;91.20;;;;;;5008241;28;20096;-64
2023/12/06 00:05:11;;;;;;;1.48;1.10;;;4.10;91.20;;;;;;5009390;28;20030;-64
2023/12/06 00:07:38;;;;;;;1.13;1.00;;;4.20;91.30;;;;;;5008013;28;20038;-64
2023/12/06 00:10:04;;;;;;;1.10;1.00;;;4.20;91.30;;;;;;5007556;28;20045;-64
2023/12/06 00:12:30;;;;;;;1.20;1.10;;;4.20;91.20;;;;;;5004935;28;20053;-64
2023/12/06 00:14:56;;;;;;;1.20;1.10;;;4.20;91.20;;;;;;5007005;28;20517;-64
2023/12/06 00:17:21;;;;;;;0.80;0.80;;;4.20;91.20;;;;;;5007750;28;20022;-64
2023/12/06 00:19:47;;;;;;;1.17;0.90;;;4.20;91.20;;;;;;5008164;28;20177;-65
2023/12/06 00:22:13;;;;;;;1.15;0.90;;;4.20;91.60;;;;;;5007698;28;20053;-64
2023/12/06 00:24:38;;;;;;;1.08;1.00;;;4.20;91.20;;;;;;5007542;28;20041;-64
2023/12/06 00:27:04;;;;;;;1.58;1.23;;;4.20;91.20;;;;;;5007603;28;20033;-64
2023/12/06 00:29:30;;;;;;;2.17;1.30;;;4.20;91.20;;;;;;5008183;28;20413;-64
2023/12/06 00:31:55;;;;;;;1.70;1.15;;;4.20;91.20;;;;;;5007895;28;20456;-64
2023/12/06 00:34:21;;;;;;;1.92;1.20;;;4.20;91.20;;;;;;5008356;28;20545;-65
2023/12/06 00:36:48;;;;;;;1.98;1.35;;;4.20;91.20;;;;;;5007304;28;20042;-64
2023/12/06 00:39:14;;;;;;;1.10;1.00;;;4.20;91.20;;;;;;5007267;28;20384;-65
2023/12/06 00:41:40;;;;;;;2.53;1.10;;;4.20;91.50;;;;;;5008055;28;20042;-64
2023/12/06 00:44:07;;;;;;;1.10;1.00;;;4.20;91.10;;;;;;5008463;28;20041;-64
2023/12/06 00:46:33;;;;;;;2.55;1.13;;;4.20;91.20;;;;;;5007389;28;20398;-64
2023/12/06 00:48:59;;;;;;;1.15;1.05;;;4.20;91.20;;;;;;5007231;28;20033;-64
2023/12/06 00:51:25;;;;;;;1.52;0.80;;;4.20;91.20;;;;;;5007685;28;20042;-64
2023/12/06 00:53:51;;;;;;;1.17;0.85;;;4.20;91.20;;;;;;5007083;28;20038;-63
2023/12/06 00:56:16;;;;;;;1.55;1.05;;;4.20;91.20;;;;;;5007865;28;20037;-65
2023/12/06 00:58:45;;;;;;;1.08;0.98;;;4.20;91.20;;;;;;5006193;28;20037;-64
2023/12/06 01:01:11;;;;;;;0.80;0.77;;;4.20;91.20;;;;;;5007436;28;20100;-65
2023/12/06 01:03:39;;;;;;;2.25;0.70;;;4.20;91.20;;;;;;5007310;28;20157;-64
2023/12/06 01:06:04;;;;;;;0.80;0.80;;;4.20;91.20;;;;;;5006523;28;20038;-65
2023/12/06 01:08:30;;;;;;;0.80;0.80;;;4.20;91.20;;;;;;5006596;28;20029;-65
2023/12/06 01:10:56;;;;;;;1.20;0.80;;;4.20;91.20;;;;;;4988257;28;20133;-64
2023/12/06 01:13:21;;;;;;;0.90;0.90;;;4.20;91.20;;;;;;5007284;28;20413;-64
2023/12/06 01:15:47;;;;;;;0.82;0.80;;;4.20;91.30;;;;;;5005866;28;20062;-65
2023/12/06 01:18:13;;;;;;;1.05;0.90;;;4.20;91.30;;;;;;5006726;28;20357;-64
2023/12/06 01:20:39;;;;;;;0.90;0.90;;;4.20;91.40;;;;;;5006286;28;20065;-64
2023/12/06 01:23:05;;;;;;;1.42;1.00;;;4.10;91.30;;;;;;5007318;28;20038;-63
2023/12/06 01:25:32;;;;;;;1.02;0.93;;;4.20;91.30;;;;;;5007046;28;20516;-64
2023/12/06 01:27:58;;;;;;;1.20;1.10;;;4.20;91.40;;;;;;5006159;28;20549;-64
2023/12/06 01:30:24;;;;;;;1.10;1.00;;;4.20;91.40;;;;;;5007975;28;20026;-64
2023/12/06 01:32:49;;;;;;;0.85;0.80;;;4.20;91.30;;;;;;5005446;28;20037;-64
2023/12/06 01:35:15;;;;;;;1.10;1.00;;;4.20;91.40;;;;;;5006608;28;20571;-64
2023/12/06 01:37:41;;;;;;;1.45;1.20;;;4.20;91.30;;;;;;5007112;28;20088;-64
2023/12/06 01:40:07;;;;;;;2.05;1.13;;;4.20;91.40;;;;;;5007258;28;20529;-65
2023/12/06 01:42:32;;;;;;;2.10;1.20;;;4.20;91.40;;;;;;5006514;28;20414;-64
2023/12/06 01:44:58;;;;;;;1.65;0.90;;;4.20;91.40;;;;;;5006446;28;20038;-64
2023/12/06 01:47:26;;;;;;;1.17;1.08;;;4.20;91.40;;;;;;5005710;28;20030;-64
2023/12/06 01:49:57;;;;;;;1.17;1.00;;;4.20;91.40;;;;;;4988209;28;20022;-64
2023/12/06 01:52:23;;;;;;;1.45;1.35;;;4.20;91.40;;;;;;5006752;28;20026;-64
2023/12/06 01:54:49;;;;;;;1.40;1.30;;;4.20;91.40;;;;;;5005580;28;20041;-64
2023/12/06 01:57:16;;;;;;;1.25;1.02;;;4.30;91.50;;;;;;5006888;28;20041;-64
2023/12/06 01:59:46;;;;;;;2.25;1.40;;;4.30;91.50;;;;;;5005543;28;20038;-64
2023/12/06 02:02:13;;;;;;;1.92;1.38;;;4.30;91.50;;;;;;5009259;28;20528;-64
2023/12/06 02:04:39;;;;;;;2.97;1.50;;;4.30;91.40;;;;;;5002347;28;20489;-63
2023/12/06 02:07:05;;;;;;;2.25;1.38;;;4.30;91.40;;;;;;5005814;28;20124;-64
2023/12/06 02:09:30;;;;;;;2.20;1.42;;;4.30;91.40;;;;;;5005637;28;20034;-63
2023/12/06 02:11:56;;;;;;;1.65;1.52;;;4.30;91.40;;;;;;5002127;28;20429;-64
2023/12/06 02:14:21;;;;;;;2.25;1.40;;;4.30;91.40;;;;;;5004990;28;20294;-65
2023/12/06 02:16:47;;;;;;;1.70;1.17;;;4.30;91.40;;;;;;5004909;28;20037;-64
2023/12/06 02:19:22;;;;;;;1.90;1.60;;;4.30;91.30;;;;;;5006054;28;20030;-64
2023/12/06 02:21:49;;;;;;;2.10;1.70;;;4.30;91.40;;;;;;5005243;28;20034;-64
2023/12/06 02:24:15;;;;;;;2.60;1.50;;;4.30;91.40;;;;;;5006538;28;20120;-64
2023/12/06 02:26:41;;;;;;;3.55;1.58;;;4.30;91.40;;;;;;5005625;28;20513;-64
2023/12/06 02:29:06;;;;;;;1.60;1.50;;;4.30;91.40;;;;;;4988027;28;20038;-63
2023/12/06 02:31:32;;;;;;;3.80;1.80;;;4.30;91.40;;;;;;5006189;28;20471;-64
2023/12/06 02:34:11;;;;;;;1.73;1.63;;;4.30;91.40;;;;;;5006033;28;20465;-64
2023/12/06 02:36:39;;;;;;;2.90;1.80;;;4.30;91.50;;;;;;5005368;28;20048;-64
2023/12/06 02:39:05;;;;;;;2.88;1.95;;;4.30;91.40;;;;;;5005486;28;20034;-64
2023/12/06 02:41:33;;;;;;;2.53;1.70;;;4.30;91.40;;;;;;5005479;28;20108;-63
2023/12/06 02:43:58;;;;;;;2.13;1.75;;;4.30;91.40;;;;;;5004912;28;20092;-64
2023/12/06 02:46:24;;;;;;;2.35;1.60;;;4.30;91.30;;;;;;5005126;28;20030;-64
2023/12/06 02:48:50;;;;;;;2.05;1.63;;;4.30;91.40;;;;;;5004661;28;20026;-64
2023/12/06 02:51:15;;;;;;;2.50;1.60;;;4.40;91.40;;;;;;5005004;28;20588;-63
2023/12/06 02:53:41;;;;;;;3.65;1.60;;;4.40;91.30;;;;;;5005291;28;20462;-64
2023/12/06 02:56:07;;;;;;;3.50;1.80;;;4.30;91.30;;;;;;5005324;28;21450;-63
2023/12/06 02:58:32;;;;;;;2.28;1.70;;;4.30;91.30;;;;;;5004076;28;20034;-64
2023/12/06 03:00:58;;;;;;;2.10;1.90;;;4.30;91.30;;;;;;5004627;28;20050;-64
2023/12/06 03:03:24;;;;;;;2.08;1.73;;;4.30;91.30;;;;;;5005192;28;20030;-64
2023/12/06 03:05:49;;;;;;;2.45;1.80;;;4.30;91.30;;;;;;5005220;28;20033;-64
2023/12/06 03:08:15;;;;;;;2.00;1.80;;;4.30;91.30;;;;;;5004868;28;20026;-64
2023/12/06 03:10:41;;;;;;;3.97;2.25;;;4.40;91.40;;;;;;5000858;28;20049;-63
2023/12/06 03:13:06;;;;;;;4.72;1.85;;;4.30;91.40;;;;;;5005179;28;20472;-64
2023/12/06 03:15:32;;;;;;;2.85;1.80;;;4.30;91.30;;;;;;5004998;28;20146;-63
2023/12/06 03:17:58;;;;;;;3.17;1.90;;;4.30;91.40;;;;;;5005771;28;20104;-63
2023/12/06 03:20:23;;;;;;;3.25;1.80;;;4.30;91.40;;;;;;4995308;28;20034;-64
2023/12/06 03:22:49;;;;;;;4.25;1.67;;;4.30;91.40;;;;;;5005404;28;20042;-63
2023/12/06 03:25:14;;;;;;;2.75;1.60;;;4.30;91.40;;;;;;5006392;28;20042;-63
2023/12/06 03:27:43;;;;;;;3.92;1.50;;;4.40;91.50;;;;;;5006323;28;20068;-63
2023/12/06 03:30:09;;;;;;;3.67;1.70;;;4.40;91.50;;;;;;5012242;28;20034;-63
2023/12/06 03:32:35;;;;;;;3.50;1.88;;;4.40;91.50;;;;;;5012175;28;20103;-63
2023/12/06 03:35:01;;;;;;;3.22;1.70;;;4.40;91.50;;;;;;5012509;28;20096;-63
2023/12/06 03:37:27;;;;;;;1.55;1.45;;;4.20;91.50;;;;;;5012347;28;20022;-63
2023/12/06 03:39:52;;;;;;;4.43;2.00;;;4.40;91.50;;;;;;5012207;28;20037;-63
2023/12/06 03:42:20;;;;;;;3.22;1.90;;;4.40;91.50;;;;;;5012046;28;20045;-63
2023/12/06 03:44:46;;;;;;;1.90;1.70;;;4.40;91.50;;;;;;5011541;28;20049;-63
2023/12/06 03:47:11;;;;;;;2.75;1.85;;;4.40;91.50;;;;;;5012160;28;20038;-63
2023/12/06 03:49:37;;;;;;;1.40;1.30;;;4.40;91.60;;;;;;5011889;28;20042;-63
2023/12/06 03:52:03;;;;;;;1.75;1.50;;;4.40;91.50;;;;;;5012038;28;20046;-63
2023/12/06 03:54:28;;;;;;;6.15;1.50;;;4.50;91.50;;;;;;5011899;28;20068;-63
2023/12/06 03:56:54;;;;;;;1.50;1.40;;;4.50;91.50;;;;;;5012133;28;20030;-63
2023/12/06 03:59:20;;;;;;;3.00;1.60;;;4.50;91.50;;;;;;5011804;28;20405;-63
2023/12/06 04:01:45;;;;;;;2.08;1.50;;;4.50;91.50;;;;;;5011840;28;20504;-63
2023/12/06 04:04:12;;;;;;;2.80;1.40;;;4.50;91.50;;;;;;5012497;28;20116;-63
2023/12/06 04:06:38;;;;;;;2.72;1.70;;;4.50;91.50;;;;;;5011400;28;20057;-63
2023/12/06 04:09:04;;;;;;;2.47;1.40;;;4.50;91.50;;;;;;5003124;28;20065;-63
2023/12/06 04:11:30;;;;;;;1.70;1.40;;;4.50;91.50;;;;;;5010567;28;20041;-63
2023/12/06 04:13:56;;;;;;;1.75;1.50;;;4.50;91.50;;;;;;5011440;28;20590;-63
2023/12/06 04:16:22;;;;;;;1.60;1.50;;;4.50;91.50;;;;;;5010461;28;20516;-63
2023/12/06 04:18:48;;;;;;;1.90;1.50;;;4.50;91.50;;;;;;5011039;28;20602;-63
2023/12/06 04:21:13;;;;;;;2.50;1.55;;;4.50;91.80;;;;;;5011889;28;20034;-63
2023/12/06 04:23:39;;;;;;;2.75;1.90;;;4.50;91.50;;;;;;5012003;28;20390;-63
2023/12/06 04:26:05;;;;;;;2.00;1.67;;;4.50;91.50;;;;;;5012932;28;20034;-63
2023/12/06 04:28:30;;;;;;;2.75;1.88;;;4.60;91.50;;;;;;5011414;28;20042;-63
2023/12/06 04:30:56;;;;;;;3.13;1.98;;;4.60;91.50;;;;;;5011933;28;20206;-63
2023/12/06 04:33:21;;;;;;;3.53;1.58;;;4.60;91.50;;;;;;5012143;28;20076;-63
2023/12/06 04:35:47;;;;;;;2.20;1.65;;;4.60;91.50;;;;;;5011683;28;20041;-63
2023/12/06 04:38:12;;;;;;;2.30;1.45;;;4.60;91.50;;;;;;5011706;28;20059;-63
2023/12/06 04:40:38;;;;;;;2.05;1.42;;;4.60;91.40;;;;;;5008588;28;20790;-63
2023/12/06 04:43:03;;;;;;;2.80;1.67;;;4.60;91.40;;;;;;5008907;28;20046;-63
2023/12/06 04:45:32;;;;;;;2.08;1.60;;;4.60;91.40;;;;;;5009003;28;20506;-63
2023/12/06 04:47:58;;;;;;;2.75;1.88;;;4.60;91.40;;;;;;5007529;28;20034;-64
2023/12/06 04:50:23;;;;;;;2.42;1.88;;;4.60;91.40;;;;;;5007955;28;20026;-63
2023/12/06 04:52:49;;;;;;;2.78;1.70;;;4.60;91.40;;;;;;5006735;28;20030;-63
2023/12/06 04:55:15;;;;;;;3.13;1.85;;;4.70;91.40;;;;;;5008628;28;20092;-63
2023/12/06 04:57:40;;;;;;;2.42;1.70;;;4.70;91.40;;;;;;4990325;28;20352;-63
2023/12/06 05:00:08;;;;;;;2.60;1.88;;;4.70;91.40;;;;;;5006972;28;20505;-63
2023/12/06 05:02:33;;;;;;;2.60;1.50;;;4.70;91.40;;;;;;5007747;28;20064;-63
2023/12/06 05:04:59;;;;;;;2.30;1.70;;;4.70;91.40;;;;;;5007217;28;20565;-63
2023/12/06 05:07:24;;;;;;;2.05;1.80;;;4.70;91.40;;;;;;5007499;28;20040;-64
2023/12/06 05:09:50;;;;;;;4.95;2.00;;;4.70;91.40;;;;;;5006865;28;20037;-63
2023/12/06 05:12:15;;;;;;;2.55;1.65;;;4.70;91.40;;;;;;5005680;28;20036;-63
2023/12/06 05:14:41;;;;;;;2.00;1.70;;;4.70;91.40;;;;;;5005008;28;20041;-63
2023/12/06 05:17:07;;;;;;;2.35;1.73;;;4.70;91.40;;;;;;5006472;28;20053;-63
2023/12/06 05:19:32;;;;;;;2.08;1.45;;;4.70;91.40;;;;;;5007128;28;20101;-63
2023/12/06 05:21:58;;;;;;;3.28;1.70;;;4.60;91.40;;;;;;5007528;28;20726;-63
2023/12/06 05:24:23;;;;;;;2.20;1.73;;;4.70;91.40;;;;;;5007669;28;20100;-64
2023/12/06 05:26:49;;;;;;;2.85;1.70;;;4.70;91.40;;;;;;5007738;28;20096;-63
2023/12/06 05:29:15;;;;;;;1.65;1.50;;;4.70;91.40;;;;;;5007950;28;20022;-63
2023/12/06 05:31:40;;;;;;;2.22;1.58;;;4.70;91.40;;;;;;5007666;28;20044;-63
2023/12/06 05:34:07;;;;;;;2.38;1.73;;;4.70;91.40;;;;;;5007690;28;20026;-63
2023/12/06 05:36:33;;;;;;;3.25;1.67;;;4.70;91.40;;;;;;5007324;28;20687;-63
2023/12/06 05:38:58;;;;;;;4.03;1.45;;;4.70;91.40;;;;;;5007643;28;20048;-63
2023/12/06 05:41:24;;;;;;;3.00;1.73;;;4.70;91.40;;;;;;5008052;28;20049;-63
2023/12/06 05:43:50;;;;;;;1.92;1.65;;;4.70;91.40;;;;;;5007495;28;20573;-64
2023/12/06 05:46:15;;;;;;;2.00;1.58;;;4.70;91.40;;;;;;5007449;28;20030;-63
2023/12/06 05:48:41;;;;;;;1.98;1.77;;;4.70;91.30;;;;;;5006538;28;20026;-63
2023/12/06 05:51:06;;;;;;;1.88;1.70;;;4.70;91.30;;;;;;5006624;28;20041;-63
2023/12/06 05:53:32;;;;;;;3.50;1.90;;;4.70;91.30;;;;;;5007900;28;20136;-63
2023/12/06 05:55:58;;;;;;;2.00;1.73;;;4.60;91.30;;;;;;5006905;28;20037;-63
2023/12/06 05:58:23;;;;;;;2.83;2.00;;;4.60;91.30;;;;;;5007030;28;20258;-63
2023/12/06 06:00:49;;;;;;;4.80;1.98;;;4.60;91.30;;;;;;5006663;28;20478;-63
2023/12/06 06:03:15;;;;;;;3.85;2.03;;;4.60;91.30;;;;;;5007152;28;20049;-64
2023/12/06 06:05:40;;;;;;;2.40;2.20;;;4.60;91.30;;;;;;5006453;28;20573;-62
2023/12/06 06:08:09;;;;;;;2.83;2.17;;;4.60;91.30;;;;;;5006534;28;20180;-63
2023/12/06 06:10:34;;;;;;;2.47;2.03;;;4.60;91.30;;;;;;5002857;28;20518;-63
2023/12/06 06:13:00;;;;;;;3.20;2.15;;;4.60;91.30;;;;;;5007304;28;20045;-63
2023/12/06 06:15:26;;;;;;;3.28;2.10;;;4.60;91.30;;;;;;5006058;28;20030;-64
2023/12/06 06:17:51;;;;;;;3.70;2.00;;;4.60;91.30;;;;;;5006721;28;20053;-63
2023/12/06 06:20:17;;;;;;;2.95;2.10;;;4.60;91.30;;;;;;5007173;28;20509;-63
2023/12/06 06:22:42;;;;;;;2.75;2.38;;;4.60;91.70;;;;;;5006128;28;20041;-63
2023/12/06 06:25:09;;;;;;;3.35;2.20;;;4.60;91.30;;;;;;5006557;28;20050;-63
2023/12/06 06:27:34;;;;;;;2.70;2.08;;;4.60;91.30;;;;;;5006474;28;20038;-63
2023/12/06 06:30:00;;;;;;;2.70;2.10;;;4.60;91.30;;;;;;5007044;28;20048;-63
2023/12/06 06:32:26;;;;;;;3.20;1.90;;;4.60;91.30;;;;;;5005775;28;20060;-63
2023/12/06 06:34:51;;;;;;;2.00;1.80;;;4.60;91.30;;;;;;5006294;28;20394;-63
2023/12/06 06:37:18;;;;;;;2.10;1.90;;;4.60;91.30;;;;;;5006426;28;20088;-63
2023/12/06 06:39:43;;;;;;;2.35;1.90;;;4.60;91.30;;;;;;5005970;28;20056;-63
2023/12/06 06:42:09;;;;;;;2.15;1.80;;;4.60;91.30;;;;;;5006718;28;20510;-63
2023/12/06 06:44:35;;;;;;;2.40;1.95;;;4.60;91.40;;;;;;5005634;28;20034;-63
2023/12/06 06:47:00;;;;;;;3.30;1.80;;;4.60;91.40;;;;;;5005625;28;20046;-64
2023/12/06 06:49:26;;;;;;;2.85;1.90;;;4.60;91.30;;;;;;5005730;28;20398;-63
2023/12/06 06:51:53;;;;;;;2.50;2.10;;;4.60;91.30;;;;;;5006231;28;20365;-64
2023/12/06 06:54:19;;;;;;;1.90;1.70;;;4.60;91.30;;;;;;5006525;28;20038;-64
2023/12/06 06:56:45;;;;;;;2.28;1.80;;;4.60;91.40;;;;;;5005361;28;20038;-64
2023/12/06 06:59:11;;;;;;;1.88;1.70;;;4.60;91.40;;;;;;4988022;28;20039;-64
2023/12/06 07:01:37;;;;;;;1.80;1.70;;;4.60;91.30;;;;;;5006155;28;20227;-64
2023/12/06 07:04:03;;;;;;;3.85;1.98;;;4.60;91.30;;;;;;5005304;28;20125;-63
2023/12/06 07:06:30;;;;;;;3.05;1.95;;;4.60;91.30;;;;;;5005917;28;20030;-63
2023/12/06 07:08:55;;;;;;;1.77;1.67;;;4.60;91.30;;;;;;4988290;28;20156;-63
2023/12/06 07:11:21;;;;;;;1.60;1.50;;;4.60;91.30;;;;;;5005710;28;20125;-64
2023/12/06 07:13:48;;;;;;;2.10;1.85;;;4.60;91.40;;;;;;5000929;28;20382;-64
2023/12/06 07:16:13;;;;;;;1.85;1.67;;;4.60;91.40;;;;;;5002317;28;20045;-64
2023/12/06 07:18:39;;;;;;;2.22;1.90;;;4.60;91.40;;;;;;5005311;28;20038;-64
2023/12/06 07:21:05;;;;;;;4.72;2.00;;;4.60;91.40;;;;;;5005665;28;20033;-64
2023/12/06 07:23:31;;;;;;;3.22;1.58;;;4.60;91.40;;;;;;5005809;28;20560;-63
2023/12/06 07:25:58;;;;;;;2.10;1.75;;;4.60;91.40;;;;;;5005941;28;20030;-63
2023/12/06 07:28:23;;;;;;;2.00;1.80;;;4.50;91.40;;;;;;4996198;28;20042;-63
2023/12/06 07:30:49;;;;;;;3.55;1.92;;;4.60;91.40;;;;;;5004762;28;20041;-63
2023/12/06 07:33:15;;;;;;;1.92;1.70;;;4.60;91.40;;;;;;5005361;28;20362;-63
2023/12/06 07:35:41;;;;;;;2.28;1.88;;;4.60;91.50;;;;;;5005479;28;20036;-63
2023/12/06 07:38:09;;;;;;;1.95;1.75;;;4.60;91.50;;;;;;5005802;28;20026;-63
2023/12/06 07:40:35;;;;;;;2.50;1.70;;;4.60;91.40;;;;;;5004905;28;20038;-63
2023/12/06 07:43:01;;;;;;;2.63;1.70;;;4.60;91.50;;;;;;5005581;28;20533;-63
2023/12/06 07:45:27;;;;;;;2.17;1.98;;;4.60;91.40;;;;;;5006101;28;20366;-63
2023/12/06 07:47:52;;;;;;;2.05;1.85;;;4.60;91.50;;;;;;5004260;28;20451;-63
2023/12/06 07:50:20;;;;;;;3.28;2.25;;;4.60;91.40;;;;;;5006052;28;20037;-63
2023/12/06 07:52:47;;;;;;;2.70;2.10;;;4.60;91.50;;;;;;5005383;28;20030;-63
2023/12/06 07:55:14;;;;;;;2.67;2.05;;;4.60;91.40;;;;;;4980990;28;20038;-63
2023/12/06 07:57:39;;;;;;;2.67;1.98;;;4.60;91.50;;;;;;5005548;28;20103;-63
2023/12/06 08:00:13;;;;;;;2.58;2.35;;;4.60;91.40;;;;;;5004870;28;20223;-63
2023/12/06 08:02:41;;;;;;;1.92;1.73;;;4.70;91.50;;;;;;4995896;28;20119;-63
2023/12/06 08:05:09;;;;;;;3.90;1.90;;;4.70;91.40;;;;;;5005680;28;20171;-63
2023/12/06 08:07:35;;;;;;;2.47;2.00;;;4.70;91.40;;;;;;5005575;28;20034;-63
2023/12/06 08:10:08;;;;;;;2.45;2.13;;;4.70;91.40;;;;;;5005305;28;20038;-63
2023/12/06 08:12:34;;;;;;;3.17;2.20;;;4.70;91.40;;;;;;5003249;28;20117;-62
2023/12/06 08:14:59;;;;;;;2.40;2.00;;;4.70;91.40;;;;;;5006001;28;20068;-63
2023/12/06 08:17:25;;;;;;;3.13;2.30;;;4.70;91.40;;;;;;5008779;28;20037;-63
2023/12/06 08:19:56;;;;;;;3.20;2.25;;;4.70;91.50;;;;;;5009178;28;20041;-63
2023/12/06 08:22:22;;;;;;;4.03;2.28;;;4.70;91.40;;;;;;5009157;28;20042;-63
2023/12/06 08:24:47;;;;;;;2.90;2.50;;;4.70;91.40;;;;;;5008116;28;20099;-63
2023/12/06 08:27:14;;;;;;;4.82;2.47;;;4.80;91.50;;;;;;4999621;28;20512;-63
2023/12/06 08:29:40;;;;;;;4.43;2.50;;;4.80;91.50;;;;;;5008503;28;20038;-63
2023/12/06 08:32:06;;;;;;;3.65;2.40;;;4.80;91.40;;;;;;5008626;28;20437;-63
2023/12/06 08:34:31;;;;;;;3.25;2.15;;;4.80;91.50;;;;;;5008231;28;20038;-64
2023/12/06 08:36:57;;;;;;;2.80;2.40;;;4.80;91.40;;;;;;5008238;28;20026;-63
2023/12/06 08:39:22;;;;;;;2.38;2.08;;;4.80;91.50;;;;;;5008418;28;20038;-63
2023/12/06 08:41:48;;;;;;;3.38;2.20;;;4.80;91.40;;;;;;5008123;28;20040;-63
2023/12/06 08:44:13;;;;;;;3.55;2.17;;;4.90;91.40;;;;;;5008786;28;20591;-62
2023/12/06 08:46:39;;;;;;;4.53;2.30;;;4.90;91.40;;;;;;5008361;28;20422;-63
2023/12/06 08:49:04;;;;;;;4.03;2.30;;;4.90;91.40;;;;;;5008181;28;20038;-63
2023/12/06 08:51:30;;;;;;;3.58;2.30;;;4.90;91.40;;;;;;5008457;28;20266;-63
2023/12/06 08:53:57;;;;;;;3.67;2.42;;;5.00;91.40;;;;;;5008386;28;20080;-63
2023/12/06 08:56:25;;;;;;;2.70;2.25;;;5.00;91.30;;;;;;5006550;28;20041;-63
2023/12/06 08:58:54;;;;;;;3.60;2.28;;;5.00;91.30;;;;;;5007213;28;20113;-63
2023/12/06 09:01:20;;;;;;;2.45;2.10;;;5.00;91.30;;;;;;5006413;28;20041;-63
2023/12/06 09:03:45;;;;;;;2.30;1.80;;;5.00;91.30;;;;;;5008042;28;20038;-63
2023/12/06 09:06:11;;;;;;;2.45;2.10;;;5.00;91.30;;;;;;5009491;28;20022;-63
2023/12/06 09:08:36;;;;;;;5.05;2.38;;;5.00;91.30;;;;;;5008894;28;20029;-62
2023/12/06 09:11:03;;;;;;;3.15;2.20;;;5.00;91.30;;;;;;5008071;28;20109;-63
2023/12/06 09:13:29;;;;;;;4.35;2.50;;;5.00;91.30;;;;;;5009134;28;20110;-63
2023/12/06 09:15:55;;;;;;;3.10;2.80;;;5.00;91.30;;;;;;5008207;28;20117;-63
2023/12/06 09:18:21;;;;;;;2.85;2.50;;;5.10;91.30;;;;;;5009016;28;20303;-63
2023/12/06 09:20:47;;;;;;;4.57;2.60;;;5.10;91.30;;;;;;4992287;28;20030;-63
2023/12/06 09:23:13;;;;;;;2.70;2.50;;;5.10;91.30;;;;;;5009308;28;20033;-63
2023/12/06 09:25:38;;;;;;;3.42;2.20;;;5.10;91.30;;;;;;5008439;28;20117;-63
2023/12/06 09:28:04;;;;;;;2.80;2.33;;;5.10;91.30;;;;;;5008545;28;20399;-62
2023/12/06 09:30:30;;;;;;;3.65;3.00;;;5.20;91.30;;;;;;5008624;28;20868;-63
2023/12/06 09:32:56;;;;;;;3.15;2.45;;;5.20;91.30;;;;;;5009002;28;20109;-62
2023/12/06 09:35:22;;;;;;;2.83;2.42;;;5.20;91.20;;;;;;5009348;28;20054;-63
2023/12/06 09:37:48;;;;;;;2.72;2.50;;;5.20;91.20;;;;;;5008844;28;20053;-62
2023/12/06 09:40:14;;;;;;;2.60;2.40;;;5.20;91.20;;;;;;5009176;28;20049;-63
2023/12/06 09:42:46;;;;;;;3.47;2.75;;;5.20;91.10;;;;;;5008297;28;20083;-63
2023/12/06 09:45:14;;;;;;;3.33;2.90;;;5.30;91.10;;;;;;5009319;28;20018;-63
2023/12/06 09:47:42;;;;;;;3.95;2.53;;;5.20;91.10;;;;;;5008425;28;20034;-62
2023/12/06 09:50:10;;;;;;;2.88;2.58;;;5.30;91.10;;;;;;5009091;28;20061;-62
2023/12/06 09:52:35;;;;;;;4.03;3.10;;;5.30;91.10;;;;;;5008427;28;20030;-63
2023/12/06 09:55:01;;;;;;;3.85;2.80;;;5.30;91.00;;;;;;5008617;28;20441;-62
2023/12/06 09:57:29;;;;;;;4.50;2.60;;;5.30;91.00;;;;;;5008797;28;20030;-62
2023/12/06 09:59:55;;;;;;;2.47;2.28;;;5.30;91.00;;;;;;5007621;28;20053;-62
2023/12/06 10:02:20;;;;;;;2.80;2.53;;;5.30;91.00;;;;;;5008688;28;20058;-61
2023/12/06 10:04:47;;;;;;;2.85;2.50;;;5.30;91.00;;;;;;5007991;28;20393;-62
2023/12/06 10:07:13;;;;;;;3.05;2.58;;;5.40;91.00;;;;;;5009082;28;20113;-62
2023/12/06 10:09:51;;;;;;;4.25;2.80;;;5.40;91.00;;;;;;5008098;28;20112;-62
2023/12/06 10:12:17;;;;;;;3.30;2.47;;;5.40;91.00;;;;;;5007794;28;20037;-62
2023/12/06 10:14:42;;;;;;;3.53;2.63;;;5.40;90.90;;;;;;4999218;28;20042;-62
2023/12/06 10:17:12;;;;;;;2.85;2.58;;;5.40;90.90;;;;;;5007928;28;20042;-62
2023/12/06 10:19:39;;;;;;;3.65;2.83;;;5.40;90.90;;;;;;5007973;28;20485;-61
2023/12/06 10:22:06;;;;;;;3.45;2.70;;;5.40;90.90;;;;;;5007769;28;20042;-62
2023/12/06 10:24:34;;;;;;;3.55;2.70;;;5.40;90.90;;;;;;5007904;28;20114;-61
2023/12/06 10:27:09;;;;;;;4.18;2.95;;;5.40;90.90;;;;;;5007847;28;20506;-62
2023/12/06 10:29:34;;;;;;;3.08;2.60;;;5.40;90.90;;;;;;5008140;28;20084;-62
2023/12/06 10:32:00;;;;;;;3.00;2.75;;;5.50;90.90;;;;;;5007889;28;20026;-61
2023/12/06 10:34:28;;;;;;;2.65;2.40;;;5.50;90.80;;;;;;5007516;28;20045;-62
2023/12/06 10:36:57;;;;;;;2.60;2.40;;;5.50;90.80;;;;;;5008026;28;20030;-61
2023/12/06 10:39:26;;;;;;;3.08;2.70;;;5.50;90.80;;;;;;5007408;28;20037;-61
2023/12/06 10:41:54;;;;;;;2.55;2.35;;;5.50;90.80;;;;;;5007327;28;20117;-62
2023/12/06 10:44:20;;;;;;;3.60;2.50;;;5.50;90.80;;;;;;5007379;28;20044;-62
2023/12/06 10:46:47;;;;;;;4.00;2.50;;;5.50;90.70;;;;;;5007290;28;20026;-61
2023/12/06 10:49:15;;;;;;;2.95;2.58;;;5.50;90.70;;;;;;5006402;28;20478;-61
2023/12/06 10:51:42;;;;;;;3.17;2.75;;;5.50;90.70;;;;;;5007730;28;20033;-61
2023/12/06 10:54:09;;;;;;;2.90;2.53;;;5.50;90.70;;;;;;5007289;28;20034;-60
2023/12/06 10:56:36;;;;;;;3.03;2.70;;;5.60;90.70;;;;;;5007088;28;20033;-60
2023/12/06 10:59:04;;;;;;;3.65;2.70;;;5.60;90.70;;;;;;5006865;28;20432;-59
2023/12/06 11:01:32;;;;;;;3.60;2.53;;;5.60;90.70;;;;;;5007470;28;20041;-62
2023/12/06 11:03:59;;;;;;;2.92;2.67;;;5.60;90.70;;;;;;5007319;28;20513;-61
2023/12/06 11:06:48;;;;;;;4.25;3.10;;;5.60;90.60;;;;;;5007372;28;20030;-60
2023/12/06 11:09:33;;;;;;;3.33;3.03;;;5.60;90.50;;;;;;4995561;28;20046;-60
2023/12/06 11:12:19;;;;;;;;;;;5.60;90.60;;;;;;5004310;28;20405;-61
2023/12/06 11:15:17;;;;;;;4.00;2.72;;;5.70;90.50;;;;;;5005721;28;19920;-61
2023/12/06 11:18:02;;;;;;;2.92;2.72;;;5.70;90.40;;;;;;5007484;28;20616;-61
2023/12/06 11:20:28;;;;;;;3.67;3.25;;;5.60;90.40;;;;;;5006777;28;20497;-61
2023/12/06 11:22:53;;;;;;;3.60;3.20;;;5.60;90.50;;;;;;5006572;28;20541;-61
2023/12/06 11:25:20;;;;;;;3.45;3.15;;;5.60;90.50;;;;;;5007595;28;20026;-61
2023/12/06 11:27:48;;;;;;;4.43;3.22;;;5.60;90.50;;;;;;5007283;28;20617;-61
2023/12/06 11:30:17;;;;;;;3.83;3.50;;;5.60;90.50;;;;;;5007433;28;20034;-61
2023/12/06 11:32:45;;;;;;;3.47;3.17;;;5.70;90.50;;;;;;5006644;28;20120;-62
2023/12/06 11:35:11;;;;;;;3.65;3.30;;;5.70;90.50;;;;;;5007144;28;20034;-61
2023/12/06 11:37:36;;;;;;;3.40;2.95;;;5.70;90.50;;;;;;5007160;28;20033;-62
2023/12/06 11:40:18;;;;;;;3.45;3.15;;;5.70;90.50;;;;;;5007079;28;20038;-61
2023/12/06 11:42:58;;;;;;;4.18;3.78;;;5.70;90.30;;;;;;5006636;28;20513;-62
2023/12/06 11:45:36;;;;;;;4.15;3.75;;;5.70;90.30;;;;;;5007011;28;20493;-62
2023/12/06 11:48:03;;;;;;;3.75;3.45;;;5.70;90.40;;;;;;5007033;28;20030;-62
2023/12/06 11:50:28;;;;;;;3.63;3.33;;;5.70;90.40;;;;;;5009424;28;20080;-62
2023/12/06 11:52:54;;;;;;;2.80;2.60;;;5.70;90.80;;;;;;5010803;28;20033;-62
2023/12/06 11:55:21;;;;;;;3.10;2.72;;;5.70;90.40;;;;;;5011165;28;20034;-62
2023/12/06 11:58:08;;;;;;;3.10;2.90;;;5.70;90.30;;;;;;5010602;28;20057;-62
2023/12/06 12:00:34;;;;;;;3.00;2.50;;;5.80;90.30;;;;;;5009968;28;20057;-63
2023/12/06 12:03:02;;;;;;;3.10;2.80;;;5.80;90.30;;;;;;5010716;28;20048;-62
2023/12/06 12:05:29;;;;;;;3.67;3.10;;;5.70;90.30;;;;;;5010728;28;20088;-61
2023/12/06 12:07:56;;;;;;;4.35;3.28;;;5.80;90.30;;;;;;5010665;28;20042;-62
2023/12/06 12:10:21;;;;;;;3.50;3.20;;;5.80;90.30;;;;;;5010498;28;20569;-62
2023/12/06 12:12:50;;;;;;;5.72;4.25;;;5.80;90.30;;;;;;5009817;28;20038;-62
2023/12/06 12:15:16;;;;;;;3.30;3.00;;;5.80;90.30;;;;;;5003135;28;20053;-62
2023/12/06 12:17:43;;;;;;;3.70;3.30;;;5.80;90.20;;;;;;5001176;28;20026;-62
2023/12/06 12:20:11;;;;;;;5.65;3.60;;;5.80;90.20;;;;;;4993142;28;20034;-62
2023/12/06 12:22:47;;;;;;;3.33;3.03;;;5.80;90.10;;;;;;4992190;28;20109;-63
2023/12/06 12:25:13;;;;;;;3.58;3.22;;;5.70;90.10;;;;;;5010215;28;20057;-62
2023/12/06 12:27:41;;;;;;;3.08;2.72;;;5.70;90.10;;;;;;5000608;28;20036;-62
2023/12/06 12:30:09;;;;;;;3.08;2.88;;;5.70;90.20;;;;;;5010028;28;20018;-62
2023/12/06 12:32:48;;;;;;;3.40;3.08;;;5.70;90.10;;;;;;5009507;28;20398;-62
2023/12/06 12:35:14;;;;;;;3.78;2.95;;;5.70;90.20;;;;;;5009822;28;20520;-62
2023/12/06 12:37:40;;;;;;;3.38;3.00;;;5.70;90.20;;;;;;5010252;28;20034;-62
2023/12/06 12:40:09;;;;;;;3.17;2.83;;;5.70;90.20;;;;;;5010075;28;20045;-62
2023/12/06 12:42:40;;;;;;;3.20;2.90;;;5.70;90.20;;;;;;4992039;28;20030;-62
2023/12/06 12:45:11;;;;;;;3.30;3.00;;;5.70;90.10;;;;;;4985455;28;20026;-62
2023/12/06 12:47:40;;;;;;;3.72;2.90;;;5.70;90.10;;;;;;5009919;28;20122;-62
2023/12/06 12:50:10;;;;;;;3.33;3.03;;;5.70;90.10;;;;;;5009339;28;20040;-62
2023/12/06 12:52:40;;;;;;;3.20;2.90;;;5.70;90.10;;;;;;5009418;28;20030;-62
2023/12/06 12:55:06;;;;;;;4.00;3.13;;;5.60;90.10;;;;;;5009856;28;20041;-61